Time;durP1;ratioP1;P1;durP2;ratioP2;P2;SDS_P1;SDS_P2;PMS_P1;PMS_P2;Temp;Humidity;BMP_temperature;BMP_pressure;BME280_temperature;BME280_humidity;BME280_pressure;Samples;Min_cycle;Max_cycle;Signal;HPM_P1;HPM_P2
2023/11/04 00:01:29;;;;;;;;;;;16.20;93.00;;;;;;6127349;23;19971;-72
2023/11/04 00:03:55;;;;;;;;;;;16.30;93.00;;;;;;6127078;23;19912;-71
2023/11/04 00:06:23;;;;;;;;;;;16.20;93.00;;;;;;6127660;23;19908;-75
2023/11/04 00:08:49;;;;;;;;;;;16.30;93.20;;;;;;6127282;23;19956;-76
2023/11/04 00:11:15;;;;;;;;;;;16.30;93.10;;;;;;6127363;23;20273;-75
2023/11/04 00:13:41;;;;;;;;;;;16.30;93.20;;;;;;6127473;23;20239;-76
2023/11/04 00:16:09;;;;;;;;;;;16.30;93.30;;;;;;6127297;23;20225;-76
2023/11/04 00:18:38;;;;;;;;;;;16.30;92.70;;;;;;6126764;23;19901;-71
2023/11/04 00:21:05;;;;;;;;;;;16.20;90.90;;;;;;6127235;23;19907;-71
2023/11/04 00:23:31;;;;;;;;;;;16.20;92.80;;;;;;6127118;23;19904;-71
2023/11/04 00:25:57;;;;;;;;;;;16.30;93.20;;;;;;6127384;23;19901;-72
2023/11/04 00:28:22;;;;;;;;;;;16.30;93.40;;;;;;6127298;23;19907;-72
2023/11/04 00:30:49;;;;;;;;;;;16.30;93.30;;;;;;6127322;23;19931;-72
2023/11/04 00:33:16;;;;;;;;;;;16.20;93.20;;;;;;6127184;23;19905;-72
2023/11/04 00:35:42;;;;;;;;;;;16.20;93.30;;;;;;6127725;23;19900;-72
2023/11/04 00:38:08;;;;;;;;;;;16.20;93.20;;;;;;6126968;23;19911;-72
2023/11/04 00:40:35;;;;;;;;;;;16.30;93.20;;;;;;6136787;23;19901;-72
2023/11/04 00:43:02;;;;;;;;;;;16.30;93.30;;;;;;6126773;23;19936;-72
2023/11/04 00:45:28;;;;;;;;;;;16.30;93.30;;;;;;6126911;23;19905;-72
2023/11/04 00:47:54;;;;;;;;;;;16.20;93.20;;;;;;6126788;23;20316;-76
2023/11/04 00:50:20;;;;;;;;;;;16.20;93.30;;;;;;6126718;23;19908;-76
2023/11/04 00:52:46;;;;;;;;;;;16.20;93.30;;;;;;6126422;23;20032;-76
2023/11/04 00:55:12;;;;;;;;;;;16.20;93.40;;;;;;6126465;23;20240;-75
2023/11/04 00:57:38;;;;;;;;;;;16.40;93.40;;;;;;6126475;23;19905;-76
2023/11/04 01:00:05;;;;;;;;;;;16.20;93.30;;;;;;6126368;23;19901;-76
2023/11/04 01:02:31;;;;;;;;;;;16.20;93.10;;;;;;6126238;23;19909;-76
2023/11/04 01:04:57;;;;;;;;;;;16.20;93.40;;;;;;6126870;23;20309;-72
2023/11/04 01:07:23;;;;;;;;;;;16.20;93.30;;;;;;6126224;23;19911;-71
2023/11/04 01:09:48;;;;;;;;;;;16.30;93.40;;;;;;6126221;23;20000;-72
2023/11/04 01:12:15;;;;;;;;;;;;;;;;;;6125787;23;19988;-71
2023/11/04 01:14:40;;;;;;;;;;;16.20;91.50;;;;;;6126376;23;20285;-76
2023/11/04 01:17:06;;;;;;;;;;;16.30;93.20;;;;;;6100370;23;19908;-76
2023/11/04 01:19:32;;;;;;;;;;;16.30;93.40;;;;;;6126851;23;19908;-76
2023/11/04 01:21:58;;;;;;;;;;;16.30;93.40;;;;;;6126648;23;19917;-76
2023/11/04 01:24:24;;;;;;;;;;;16.30;93.40;;;;;;6126840;23;19947;-76
2023/11/04 01:26:53;;;;;;;;;;;16.30;93.40;;;;;;6126370;23;19944;-76
2023/11/04 01:29:19;;;;;;;;;;;16.20;91.60;;;;;;6126102;23;19907;-76
2023/11/04 01:31:45;;;;;;;;;;;16.20;93.50;;;;;;6126858;23;19901;-76
2023/11/04 01:34:11;;;;;;;;;;;16.30;93.30;;;;;;6126610;23;19908;-76
2023/11/04 01:36:39;;;;;;;;;;;16.10;93.20;;;;;;6126206;23;20344;-76
2023/11/04 01:39:06;;;;;;;;;;;16.20;93.10;;;;;;6126102;23;19920;-76
2023/11/04 01:41:33;;;;;;;;;;;16.30;93.60;;;;;;6125800;23;19968;-76
2023/11/04 01:43:59;;;;;;;;;;;16.40;93.50;;;;;;6126512;23;19904;-76
2023/11/04 01:46:25;;;;;;;;;;;16.00;93.20;;;;;;6126287;23;19901;-76
2023/11/04 01:48:52;;;;;;;;;;;16.20;93.50;;;;;;6126085;23;20277;-75
2023/11/04 01:51:19;;;;;;;;;;;16.50;93.60;;;;;;6126389;23;20322;-76
2023/11/04 01:53:53;;;;;;;;;;;15.00;93.30;;;;;;6126383;23;19947;-76
2023/11/04 01:56:21;;;;;;;;;;;16.10;91.00;;;;;;6126249;23;20013;-75
2023/11/04 01:58:49;;;;;;;;;;;16.20;93.50;;;;;;6126211;23;20004;-76
2023/11/04 02:01:15;;;;;;;;;;;16.20;93.30;;;;;;6126597;23;20257;-71
2023/11/04 02:03:41;;;;;;;;;;;16.10;93.30;;;;;;6126276;23;19908;-72
2023/11/04 02:06:07;;;;;;;;;;;16.20;93.50;;;;;;6126373;23;19901;-72
2023/11/04 02:08:34;;;;;;;;;;;16.20;93.50;;;;;;6125939;23;19943;-71
2023/11/04 02:11:01;;;;;;;;;;;16.20;93.60;;;;;;6125610;23;20336;-72
2023/11/04 02:13:27;;;;;;;;;;;16.20;93.60;;;;;;6126237;23;19908;-72
2023/11/04 02:15:53;;;;;;;;;;;16.30;93.50;;;;;;6126295;23;19901;-72
2023/11/04 02:18:19;;;;;;;;;;;16.10;93.50;;;;;;6126222;23;20301;-71
2023/11/04 02:20:46;;;;;;;;;;;16.10;93.40;;;;;;6125742;23;19904;-71
2023/11/04 02:23:13;;;;;;;;;;;16.20;93.50;;;;;;6125818;23;19909;-72
2023/11/04 02:25:39;;;;;;;;;;;16.20;93.70;;;;;;6126048;23;19900;-71
2023/11/04 02:28:05;;;;;;;;;;;16.20;93.60;;;;;;6125604;23;20232;-72
2023/11/04 02:30:31;;;;;;;;;;;16.20;93.50;;;;;;6126093;23;19908;-72
2023/11/04 02:32:57;;;;;;;;;;;16.20;93.60;;;;;;6126100;23;19991;-72
2023/11/04 02:35:23;;;;;;;;;;;16.20;93.60;;;;;;6126261;23;19947;-72
2023/11/04 02:37:50;;;;;;;;;;;16.30;93.50;;;;;;6125707;23;19929;-72
2023/11/04 02:40:16;;;;;;;;;;;16.20;93.60;;;;;;6125588;23;19913;-76
2023/11/04 02:42:42;;;;;;;;;;;16.20;93.60;;;;;;6126178;23;19915;-76
2023/11/04 02:45:10;;;;;;;;;;;16.20;93.60;;;;;;6125888;23;19967;-76
2023/11/04 02:47:36;;;;;;;;;;;16.50;93.20;;;;;;6125688;23;20069;-76
2023/11/04 02:50:01;;;;;;;;;;;16.20;93.60;;;;;;6126179;23;19937;-76
2023/11/04 02:52:28;;;;;;;;;;;16.00;93.50;;;;;;6126149;23;19911;-76
2023/11/04 02:54:54;;;;;;;;;;;16.20;93.90;;;;;;6125924;23;19972;-76
2023/11/04 02:57:20;;;;;;;;;;;16.20;93.40;;;;;;6126250;23;19927;-72
2023/11/04 02:59:46;;;;;;;;;;;16.20;93.60;;;;;;6125735;23;20340;-72
2023/11/04 03:02:12;;;;;;;;;;;16.10;93.50;;;;;;6125483;23;19932;-72
2023/11/04 03:04:38;;;;;;;;;;;16.40;93.70;;;;;;6125669;23;19912;-72
2023/11/04 03:07:05;;;;;;;;;;;16.10;93.40;;;;;;6125419;23;19947;-72
2023/11/04 03:09:31;;;;;;;;;;;16.20;93.70;;;;;;6125899;23;19908;-74
2023/11/04 03:11:57;;;;;;;;;;;16.20;93.70;;;;;;6125476;23;19984;-74
2023/11/04 03:14:24;;;;;;;;;;;16.20;93.50;;;;;;6125348;23;19901;-74
2023/11/04 03:16:53;;;;;;;;;;;16.20;93.60;;;;;;6125736;23;19901;-74
2023/11/04 03:19:19;;;;;;;;;;;16.20;93.70;;;;;;6125285;23;19901;-76
2023/11/04 03:21:45;;;;;;;;;;;16.20;93.70;;;;;;6125696;23;19916;-74
2023/11/04 03:24:11;;;;;;;;;;;16.20;93.70;;;;;;6126086;23;19907;-76
2023/11/04 03:26:37;;;;;;;;;;;16.10;93.70;;;;;;6126342;23;20033;-74
2023/11/04 03:29:03;;;;;;;;;;;16.10;93.70;;;;;;6125511;23;19908;-76
2023/11/04 03:31:30;;;;;;;;;;;16.20;93.60;;;;;;6125745;23;19989;-74
2023/11/04 03:33:57;;;;;;;;;;;16.10;93.60;;;;;;6125598;23;19901;-75
2023/11/04 03:36:23;;;;;;;;;;;16.10;93.70;;;;;;6127678;23;19901;-75
2023/11/04 03:38:49;;;;;;;;;;;16.10;93.60;;;;;;6127184;23;19920;-70
2023/11/04 03:41:15;;;;;;;;;;;16.10;93.70;;;;;;6127281;23;20232;-70
2023/11/04 03:43:40;;;;;;;;;;;16.10;93.60;;;;;;6127660;23;19901;-71
2023/11/04 03:46:07;;;;;;;;;;;16.10;93.70;;;;;;6127496;23;19901;-71
2023/11/04 03:48:33;;;;;;;;;;;16.20;93.50;;;;;;6127463;23;19901;-71
2023/11/04 03:50:59;;;;;;;;;;;16.10;93.70;;;;;;6127069;23;19900;-70
2023/11/04 03:53:25;;;;;;;;;;;16.20;93.70;;;;;;6127112;23;19956;-71
2023/11/04 03:55:51;;;;;;;;;;;16.10;93.60;;;;;;6127571;23;19901;-75
2023/11/04 03:58:17;;;;;;;;;;;16.10;93.60;;;;;;6127554;23;19904;-75
2023/11/04 04:00:43;;;;;;;;;;;16.10;93.70;;;;;;6127452;23;19980;-75
2023/11/04 04:03:09;;;;;;;;;;;15.30;93.40;;;;;;6127362;23;19964;-76
2023/11/04 04:05:35;;;;;;;;;;;15.90;93.60;;;;;;6127233;23;20269;-76
2023/11/04 04:08:02;;;;;;;;;;;16.10;93.70;;;;;;6127488;23;19901;-76
2023/11/04 04:10:27;;;;;;;;;;;16.20;93.60;;;;;;6127101;23;20317;-76
2023/11/04 04:12:54;;;;;;;;;;;16.00;93.60;;;;;;6127048;23;19920;-76
2023/11/04 04:15:20;;;;;;;;;;;16.10;93.70;;;;;;6127366;23;19934;-76
2023/11/04 04:17:45;;;;;;;;;;;16.00;93.60;;;;;;6127033;23;20237;-76
2023/11/04 04:20:12;;;;;;;;;;;16.10;93.70;;;;;;6127329;23;20240;-76
2023/11/04 04:22:38;;;;;;;;;;;15.90;93.40;;;;;;6127784;23;19991;-76
2023/11/04 04:25:04;;;;;;;;;;;16.10;93.70;;;;;;6127047;23;19956;-76
2023/11/04 04:27:30;;;;;;;;;;;16.10;93.50;;;;;;6127331;23;19991;-76
2023/11/04 04:29:56;;;;;;;;;;;16.10;93.70;;;;;;6127362;23;20344;-76
2023/11/04 04:32:22;;;;;;;;;;;16.00;93.60;;;;;;6126928;23;19908;-76
2023/11/04 04:34:48;;;;;;;;;;;16.10;93.70;;;;;;6127298;23;19905;-72
2023/11/04 04:37:14;;;;;;;;;;;16.10;93.80;;;;;;6126816;23;19908;-72
2023/11/04 04:39:40;;;;;;;;;;;16.00;93.70;;;;;;6126596;23;19913;-72
2023/11/04 04:42:06;;;;;;;;;;;16.10;93.70;;;;;;6127036;23;19909;-72
2023/11/04 04:44:33;;;;;;;;;;;16.10;93.70;;;;;;6127018;23;19955;-72
2023/11/04 04:47:00;;;;;;;;;;;16.10;93.70;;;;;;6126932;23;19943;-70
2023/11/04 04:49:25;;;;;;;;;;;16.00;93.80;;;;;;6126470;23;19901;-71
2023/11/04 04:51:51;;;;;;;;;;;16.00;93.80;;;;;;6126960;23;19900;-70
2023/11/04 04:54:16;;;;;;;;;;;16.20;93.60;;;;;;6126909;23;19901;-71
2023/11/04 04:56:42;;;;;;;;;;;16.10;93.70;;;;;;6126395;23;19908;-70
2023/11/04 04:59:08;;;;;;;;;;;16.00;93.80;;;;;;6126769;23;19948;-71
2023/11/04 05:01:34;;;;;;;;;;;16.00;93.60;;;;;;6126198;23;19913;-70
2023/11/04 05:04:00;;;;;;;;;;;16.00;93.60;;;;;;6126518;23;20320;-70
2023/11/04 05:06:26;;;;;;;;;;;16.00;93.80;;;;;;6126776;23;20280;-70
2023/11/04 05:08:51;;;;;;;;;;;16.20;93.80;;;;;;6126262;23;19928;-71
2023/11/04 05:11:17;;;;;;;;;;;16.00;93.80;;;;;;6126075;23;19905;-71
2023/11/04 05:13:42;;;;;;;;;;;16.00;93.90;;;;;;6126229;23;19901;-72
2023/11/04 05:16:08;;;;;;;;;;;16.00;93.60;;;;;;6126125;23;20333;-70
2023/11/04 05:18:33;;;;;;;;;;;16.00;93.30;;;;;;6126157;23;19920;-70
2023/11/04 05:20:59;;;;;;;;;;;16.00;93.70;;;;;;6126676;23;19932;-74
2023/11/04 05:23:26;;;;;;;;;;;16.00;93.90;;;;;;6126147;23;19960;-74
2023/11/04 05:25:52;;;;;;;;;;;15.90;93.60;;;;;;6126650;23;19901;-74
2023/11/04 05:28:18;;;;;;;;;;;15.90;93.60;;;;;;6126213;23;20347;-75
2023/11/04 05:30:44;;;;;;;;;;;15.90;93.70;;;;;;6126654;23;19928;-74
2023/11/04 05:33:10;;;;;;;;;;;16.00;93.80;;;;;;6126644;23;19901;-70
2023/11/04 05:35:36;;;;;;;;;;;15.90;93.60;;;;;;6126652;23;20237;-70
2023/11/04 05:38:02;;;;;;;;;;;16.00;93.90;;;;;;6125767;23;19908;-71
2023/11/04 05:40:28;;;;;;;;;;;16.00;94.00;;;;;;6126413;23;19905;-71
2023/11/04 05:42:55;;;;;;;;;;;15.90;93.80;;;;;;6126351;23;19909;-71
2023/11/04 05:45:21;;;;;;;;;;;16.00;94.10;;;;;;6125996;23;19901;-71
2023/11/04 05:47:47;;;;;;;;;;;16.00;93.90;;;;;;6126090;23;19979;-71
2023/11/04 05:50:13;;;;;;;;;;;15.80;93.90;;;;;;6126993;23;19907;-71
2023/11/04 05:52:38;;;;;;;;;;;16.10;94.20;;;;;;6125783;23;19975;-70
2023/11/04 05:55:04;;;;;;;;;;;16.00;94.10;;;;;;6125759;23;20257;-70
2023/11/04 05:57:29;;;;;;;;;;;16.00;94.00;;;;;;6125305;23;19979;-70
2023/11/04 05:59:55;;;;;;;;;;;16.00;94.20;;;;;;6125676;23;20295;-75
2023/11/04 06:02:20;;;;;;;;;;;15.90;94.00;;;;;;6125553;23;19916;-75
2023/11/04 06:04:46;;;;;;;;;;;16.00;94.00;;;;;;6125740;23;20284;-74
2023/11/04 06:07:11;;;;;;;;;;;15.90;94.10;;;;;;6125825;23;19900;-74
2023/11/04 06:09:37;;;;;;;;;;;15.90;94.00;;;;;;6125645;23;19936;-76
2023/11/04 06:12:05;;;;;;;;;;;15.60;94.00;;;;;;6125802;23;20032;-76
2023/11/04 06:14:31;;;;;;;;;;;15.90;91.70;;;;;;6126021;23;20245;-75
2023/11/04 06:16:57;;;;;;;;;;;15.90;94.00;;;;;;6126342;23;19952;-75
2023/11/04 06:19:23;;;;;;;;;;;16.00;94.30;;;;;;6126230;23;19905;-75
2023/11/04 06:21:49;;;;;;;;;;;16.00;94.20;;;;;;6126076;23;20276;-75
2023/11/04 06:24:16;;;;;;;;;;;16.10;94.20;;;;;;6125750;23;19900;-75
2023/11/04 06:26:42;;;;;;;;;;;16.10;94.20;;;;;;6126151;23;19967;-75
2023/11/04 06:29:08;;;;;;;;;;;16.00;94.10;;;;;;6126233;23;19905;-75
2023/11/04 06:31:33;;;;;;;;;;;16.10;94.20;;;;;;6126111;23;19948;-76
2023/11/04 06:33:58;;;;;;;;;;;16.00;94.30;;;;;;6125393;23;19976;-77
2023/11/04 06:36:31;;;;;;;;;;;16.00;94.30;;;;;;6125535;23;19905;-77
2023/11/04 06:38:56;;;;;;;;;;;15.90;93.90;;;;;;6125288;23;19913;-78
2023/11/04 06:41:23;;;;;;;;;;;16.00;94.10;;;;;;6125178;23;19901;-77
2023/11/04 06:43:51;;;;;;;;;;;16.10;94.30;;;;;;6125321;23;19908;-78
2023/11/04 06:46:17;;;;;;;;;;;16.00;94.10;;;;;;6125901;23;20361;-74
2023/11/04 06:48:43;;;;;;;;;;;16.10;94.30;;;;;;6125208;23;19909;-72
2023/11/04 06:51:09;;;;;;;;;;;16.00;94.00;;;;;;6125596;23;20237;-72
2023/11/04 06:53:34;;;;;;;;;;;16.10;94.10;;;;;;6125614;23;19900;-73
2023/11/04 06:56:02;;;;;;;;;;;16.00;94.00;;;;;;6125831;23;20313;-71
2023/11/04 06:58:28;;;;;;;;;;;16.10;94.20;;;;;;6125464;23;19905;-77
2023/11/04 07:00:53;;;;;;;;;;;16.10;94.20;;;;;;6125222;23;20332;-75
2023/11/04 07:03:19;;;;;;;;;;;16.00;94.00;;;;;;6125106;23;19909;-75
2023/11/04 07:05:44;;;;;;;;;;;16.10;94.20;;;;;;6125189;23;19908;-75
2023/11/04 07:08:10;;;;;;;;;;;16.10;94.30;;;;;;6125820;23;19908;-74
2023/11/04 07:10:37;;;;;;;;;;;16.80;94.10;;;;;;6127247;23;19901;-74
2023/11/04 07:13:03;;;;;;;;;;;16.20;94.10;;;;;;6127755;23;19907;-74
2023/11/04 07:15:29;;;;;;;;;;;16.10;94.20;;;;;;6127722;23;19940;-74
2023/11/04 07:17:55;;;;;;;;;;;16.20;94.20;;;;;;6127213;23;19900;-74
2023/11/04 07:20:21;;;;;;;;;;;16.00;94.00;;;;;;6127208;23;19987;-74
2023/11/04 07:22:47;;;;;;;;;;;16.20;94.10;;;;;;6127527;23;20025;-74
2023/11/04 07:25:12;;;;;;;;;;;16.10;94.10;;;;;;6127351;23;20324;-76
2023/11/04 07:27:38;;;;;;;;;;;16.10;93.90;;;;;;6126940;23;19911;-74
2023/11/04 07:30:04;;;;;;;;;;;16.10;94.10;;;;;;6127633;23;19980;-74
2023/11/04 07:32:30;;;;;;;;;;;16.20;93.80;;;;;;6127648;23;19959;-74
2023/11/04 07:34:56;;;;;;;;;;;16.20;94.10;;;;;;6127575;23;19901;-74
2023/11/04 07:37:22;;;;;;;;;;;16.20;94.10;;;;;;6127194;23;19908;-74
2023/11/04 07:39:48;;;;;;;;;;;16.20;94.00;;;;;;6127145;23;19929;-74
2023/11/04 07:42:14;;;;;;;;;;;16.20;94.00;;;;;;6128048;23;20022;-71
2023/11/04 07:44:40;;;;;;;;;;;16.10;93.90;;;;;;6127156;23;19979;-71
2023/11/04 07:47:06;;;;;;;;;;;16.20;93.80;;;;;;6127487;23;19970;-71
2023/11/04 07:49:34;;;;;;;;;;;;;;;;;;6127576;23;19909;-71
2023/11/04 07:52:00;;;;;;;;;;;16.10;93.20;;;;;;6127150;23;20333;-71
2023/11/04 07:54:26;;;;;;;;;;;16.20;94.00;;;;;;6127595;23;19912;-75
2023/11/04 07:56:52;;;;;;;;;;;16.10;93.90;;;;;;6127351;23;19908;-74
2023/11/04 07:59:18;;;;;;;;;;;16.10;93.90;;;;;;6127081;23;19904;-74
2023/11/04 08:01:44;;;;;;;;;;;16.10;93.80;;;;;;6127219;23;19920;-74
2023/11/04 08:04:10;;;;;;;;;;;16.20;93.90;;;;;;6127390;23;19971;-73
2023/11/04 08:06:36;;;;;;;;;;;16.20;93.80;;;;;;6126656;23;20213;-74
2023/11/04 08:09:02;;;;;;;;;;;16.40;94.00;;;;;;6126924;23;19908;-75
2023/11/04 08:11:29;;;;;;;;;;;16.20;93.80;;;;;;6127912;23;19952;-76
2023/11/04 08:13:55;;;;;;;;;;;16.00;93.80;;;;;;6127198;23;19913;-74
2023/11/04 08:16:21;;;;;;;;;;;16.30;94.00;;;;;;6126892;23;19905;-74
2023/11/04 08:18:47;;;;;;;;;;;16.20;93.90;;;;;;6127239;23;19977;-81
2023/11/04 08:21:16;;;;;;;;;;;16.10;93.90;;;;;;6126309;23;20329;-76
2023/11/04 08:23:42;;;;;;;;;;;16.10;91.50;;;;;;6127319;23;19909;-72
2023/11/04 08:26:07;;;;;;;;;;;16.20;93.80;;;;;;6127116;23;19905;-72
2023/11/04 08:28:34;;;;;;;;;;;16.20;94.00;;;;;;6127167;23;20236;-72
2023/11/04 08:31:00;;;;;;;;;;;16.20;93.90;;;;;;6127078;23;20238;-73
2023/11/04 08:33:26;;;;;;;;;;;16.10;93.80;;;;;;6127175;23;19908;-72
2023/11/04 08:35:52;;;;;;;;;;;16.20;93.90;;;;;;6127050;23;19901;-72
2023/11/04 08:38:18;;;;;;;;;;;16.10;93.70;;;;;;6126571;23;19952;-71
2023/11/04 08:40:44;;;;;;;;;;;16.10;93.80;;;;;;6137093;23;19901;-72
2023/11/04 08:43:11;;;;;;;;;;;16.20;93.80;;;;;;6126593;23;20228;-71
2023/11/04 08:45:37;;;;;;;;;;;16.30;93.80;;;;;;6126550;23;19901;-71
2023/11/04 08:48:02;;;;;;;;;;;16.20;94.00;;;;;;6126966;23;19901;-71
2023/11/04 08:50:28;;;;;;;;;;;16.30;93.90;;;;;;6127017;23;19901;-71
2023/11/04 08:52:54;;;;;;;;;;;16.30;94.00;;;;;;6127174;23;19904;-70
2023/11/04 08:55:20;;;;;;;;;;;16.30;94.00;;;;;;6126576;23;19907;-70
2023/11/04 08:57:46;;;;;;;;;;;16.20;93.80;;;;;;6126526;23;19936;-70
2023/11/04 09:00:12;;;;;;;;;;;16.30;94.10;;;;;;6126844;23;19901;-71
2023/11/04 09:02:38;;;;;;;;;;;16.10;93.70;;;;;;6126618;23;19909;-71
2023/11/04 09:05:08;;;;;;;;;;;16.30;94.00;;;;;;6126789;23;20308;-70
2023/11/04 09:07:34;;;;;;;;;;;16.20;93.80;;;;;;6126754;23;19945;-70
2023/11/04 09:10:00;;;;;;;;;;;16.20;93.90;;;;;;6126828;23;19932;-70
2023/11/04 09:12:26;;;;;;;;;;;16.20;93.90;;;;;;6126856;23;20356;-70
2023/11/04 09:14:52;;;;;;;;;;;16.10;93.80;;;;;;6126381;23;19912;-70
2023/11/04 09:17:18;;;;;;;;;;;16.20;94.00;;;;;;6126630;23;19904;-69
2023/11/04 09:19:44;;;;;;;;;;;16.30;94.20;;;;;;6126717;23;20237;-76
2023/11/04 09:22:10;;;;;;;;;;;16.20;94.00;;;;;;6126248;23;19916;-77
2023/11/04 09:24:36;;;;;;;;;;;16.20;94.00;;;;;;6126303;23;20304;-76
2023/11/04 09:27:02;;;;;;;;;;;16.20;94.30;;;;;;6126180;23;19901;-78
2023/11/04 09:29:28;;;;;;;;;;;16.20;94.20;;;;;;6126185;23;19905;-77
2023/11/04 09:31:54;;;;;;;;;;;16.10;94.10;;;;;;6126038;23;19939;-75
2023/11/04 09:34:20;;;;;;;;;;;16.30;94.40;;;;;;6127346;23;19971;-75
2023/11/04 09:36:46;;;;;;;;;;;16.20;94.20;;;;;;6128553;23;20376;-75
2023/11/04 09:39:13;;;;;;;;;;;16.40;94.40;;;;;;6125943;23;19916;-76
2023/11/04 09:41:39;;;;;;;;;;;16.30;94.60;;;;;;6126657;23;20296;-80
2023/11/04 09:44:05;;;;;;;;;;;16.40;94.40;;;;;;6126613;23;19901;-81
2023/11/04 09:46:31;;;;;;;;;;;16.40;93.80;;;;;;6126426;23;20228;-80
2023/11/04 09:48:57;;;;;;;;;;;16.20;94.20;;;;;;6126679;23;20230;-80
2023/11/04 09:51:26;;;;;;;;;;;16.40;94.30;;;;;;6126394;23;19901;-81
2023/11/04 09:53:53;;;;;;;;;;;16.50;94.50;;;;;;6125855;23;19945;-80
2023/11/04 09:56:19;;;;;;;;;;;16.40;94.50;;;;;;6125742;23;19901;-78
2023/11/04 09:58:45;;;;;;;;;;;16.40;94.50;;;;;;6125772;23;20240;-78
2023/11/04 10:01:11;;;;;;;;;;;;;;;;;;6125657;23;19901;-78
2023/11/04 10:03:36;;;;;;;;;;;16.40;92.00;;;;;;6125560;23;19924;-77
2023/11/04 10:06:02;;;;;;;;;;;16.30;94.30;;;;;;6126285;23;19901;-73
2023/11/04 10:08:28;;;;;;;;;;;16.40;94.20;;;;;;6126255;23;19911;-71
2023/11/04 10:10:54;;;;;;;;;;;16.40;94.40;;;;;;6126161;23;19907;-72
2023/11/04 10:13:20;;;;;;;;;;;16.30;94.20;;;;;;6126250;23;19955;-72
2023/11/04 10:15:46;;;;;;;;;;;16.40;94.30;;;;;;6126259;23;20242;-72
2023/11/04 10:18:12;;;;;;;;;;;16.30;94.20;;;;;;6126263;23;19908;-78
2023/11/04 10:20:38;;;;;;;;;;;16.50;94.40;;;;;;6126146;23;19905;-78
2023/11/04 10:23:03;;;;;;;;;;;16.50;94.50;;;;;;6125585;23;19928;-79
2023/11/04 10:25:30;;;;;;;;;;;16.50;94.40;;;;;;6125656;23;19940;-78
2023/11/04 10:27:55;;;;;;;;;;;16.40;94.40;;;;;;6125586;23;20217;-77
2023/11/04 10:30:21;;;;;;;;;;;16.50;94.40;;;;;;6126139;23;19901;-78
2023/11/04 10:32:52;;;;;;;;;;;16.50;94.40;;;;;;6125579;23;20321;-75
2023/11/04 10:35:19;;;;;;;;;;;16.40;92.00;;;;;;6126008;23;19905;-78
2023/11/04 10:37:46;;;;;;;;;;;16.50;94.50;;;;;;6125531;23;19901;-77
2023/11/04 10:40:13;;;;;;;;;;;16.50;94.40;;;;;;6125523;23;20324;-77
2023/11/04 10:42:48;;;;;;;;;;;16.40;94.40;;;;;;6124974;23;19917;-77
2023/11/04 10:45:20;;;;;;;;;;;16.40;91.80;;;;;;6125637;23;19904;-77
2023/11/04 10:47:46;;;;;;;;;;;;;;;;;;6125444;23;19901;-77
2023/11/04 10:50:12;;;;;;;;;;;16.40;92.40;;;;;;6126081;23;19908;-77
2023/11/04 10:52:43;;;;;;;;;;;16.50;94.30;;;;;;6125542;23;20332;-77
2023/11/04 10:55:13;;;;;;;;;;;16.40;94.10;;;;;;6125573;23;19905;-76
2023/11/04 10:57:46;;;;;;;;;;;16.40;94.10;;;;;;6135318;23;19901;-77
2023/11/04 11:00:14;;;;;;;;;;;16.40;92.10;;;;;;6125769;23;19901;-76
2023/11/04 11:02:43;;;;;;;;;;;16.50;94.20;;;;;;6125864;23;19910;-76
2023/11/04 11:05:12;;;;;;;;;;;16.50;94.30;;;;;;6125948;23;19948;-76
2023/11/04 11:07:44;;;;;;;;;;;16.40;94.50;;;;;;6125782;23;19909;-76
2023/11/04 11:10:12;;;;;;;;;;;16.50;92.00;;;;;;6125862;23;19901;-77
2023/11/04 11:12:57;;;;;;;;;;;16.50;94.40;;;;;;6125795;23;19911;-77
2023/11/04 11:15:23;;;;;;;;;;;16.50;92.10;;;;;;6125946;23;19920;-72
2023/11/04 11:17:56;;;;;;;;;;;16.50;94.30;;;;;;6125810;23;19901;-72
2023/11/04 11:20:35;;;;;;;;;;;16.60;92.10;;;;;;6125255;23;19932;-72
2023/11/04 11:23:04;;;;;;;;;;;16.50;92.00;;;;;;6125188;23;19996;-71
2023/11/04 11:25:30;;;;;;;;;;;16.50;94.40;;;;;;6124998;23;19901;-72
2023/11/04 11:27:55;;;;;;;;;;;16.50;94.40;;;;;;6125245;23;19905;-71
2023/11/04 11:30:21;;;;;;;;;;;16.50;94.40;;;;;;6125886;23;19907;-78
2023/11/04 11:32:47;;;;;;;;;;;16.50;94.30;;;;;;6125260;23;19901;-79
2023/11/04 11:35:12;;;;;;;;;;;16.50;94.30;;;;;;6125358;23;19901;-78
2023/11/04 11:37:40;;;;;;;;;;;16.50;94.20;;;;;;6125576;23;20336;-78
2023/11/04 11:40:12;;;;;;;;;;;16.40;94.10;;;;;;6125199;23;19920;-77
2023/11/04 11:42:38;;;;;;;;;;;16.50;92.10;;;;;;6125328;23;20285;-79
2023/11/04 11:45:05;;;;;;;;;;;15.30;93.90;;;;;;6125367;23;19970;-79
2023/11/04 11:47:31;;;;;;;;;;;16.40;94.00;;;;;;6125921;23;19964;-77
2023/11/04 11:49:58;;;;;;;;;;;16.50;94.30;;;;;;6125484;23;19909;-75
2023/11/04 11:52:24;;;;;;;;;;;16.40;94.10;;;;;;6125730;23;19923;-77
2023/11/04 11:54:50;;;;;;;;;;;16.40;94.20;;;;;;6125671;23;19901;-76
2023/11/04 11:57:16;;;;;;;;;;;16.40;94.20;;;;;;6127212;23;19901;-75
2023/11/04 11:59:42;;;;;;;;;;;16.50;94.10;;;;;;6127803;23;19907;-73
2023/11/04 12:02:10;;;;;;;;;;;16.50;94.10;;;;;;6127350;23;19924;-73
2023/11/04 12:04:36;;;;;;;;;;;16.10;94.00;;;;;;6126995;23;19905;-73
2023/11/04 12:07:02;;;;;;;;;;;16.40;94.20;;;;;;6127136;23;19901;-73
2023/11/04 12:09:29;;;;;;;;;;;16.50;94.10;;;;;;6127532;23;19905;-73
2023/11/04 12:11:55;;;;;;;;;;;16.50;94.30;;;;;;6126938;23;19905;-76
2023/11/04 12:14:23;;;;;;;;;;;16.50;94.30;;;;;;6127064;23;19933;-73
2023/11/04 12:16:49;;;;;;;;;;;16.50;94.20;;;;;;6127260;23;20287;-73
2023/11/04 12:19:15;;;;;;;;;;;16.50;94.20;;;;;;6127388;23;19901;-76
2023/11/04 12:21:41;;;;;;;;;;;16.50;94.20;;;;;;6127239;23;19985;-75
2023/11/04 12:24:08;;;;;;;;;;;16.50;94.30;;;;;;6127292;23;19901;-74
2023/11/04 12:26:34;;;;;;;;;;;16.50;93.60;;;;;;6126771;23;19900;-74
2023/11/04 12:28:59;;;;;;;;;;;16.40;94.10;;;;;;6127197;23;19932;-71
2023/11/04 12:31:27;;;;;;;;;;;16.50;94.30;;;;;;6127262;23;19901;-71
2023/11/04 12:33:53;;;;;;;;;;;16.50;91.90;;;;;;6126567;23;19900;-71
2023/11/04 12:36:19;;;;;;;;;;;16.40;94.20;;;;;;6127168;23;19921;-72
2023/11/04 12:38:46;;;;;;;;;;;16.50;94.30;;;;;;6126409;23;19913;-71
2023/11/04 12:41:14;;;;;;;;;;;16.50;93.90;;;;;;6126497;23;19923;-74
2023/11/04 12:43:41;;;;;;;;;;;16.50;94.40;;;;;;6126558;23;19908;-74
2023/11/04 12:46:09;;;;;;;;;;;16.40;93.90;;;;;;6126387;23;19908;-74
2023/11/04 12:48:36;;;;;;;;;;;16.50;94.40;;;;;;6126721;23;19901;-74
2023/11/04 12:51:01;;;;;;;;;;;16.40;94.20;;;;;;6126383;23;19979;-74
2023/11/04 12:53:28;;;;;;;;;;;16.40;94.10;;;;;;6126439;23;19904;-74
2023/11/04 12:55:56;;;;;;;;;;;16.50;94.30;;;;;;6127477;23;20272;-71
2023/11/04 12:58:22;;;;;;;;;;;16.50;93.00;;;;;;6126330;23;20309;-71
2023/11/04 13:00:48;;;;;;;;;;;16.40;94.10;;;;;;6126383;23;19905;-71
2023/11/04 13:03:13;;;;;;;;;;;16.40;94.00;;;;;;6125930;23;19910;-72
2023/11/04 13:05:39;;;;;;;;;;;16.40;94.20;;;;;;6126266;23;19936;-72
2023/11/04 13:08:05;;;;;;;;;;;16.60;94.00;;;;;;6126358;23;19912;-72
2023/11/04 13:10:30;;;;;;;;;;;16.50;94.30;;;;;;6126141;23;19901;-71
2023/11/04 13:12:56;;;;;;;;;;;16.50;94.20;;;;;;6126766;23;19968;-71
2023/11/04 13:15:23;;;;;;;;;;;16.50;94.20;;;;;;6126688;23;19901;-72
2023/11/04 13:17:48;;;;;;;;;;;16.50;94.20;;;;;;6126688;23;19901;-71
2023/11/04 13:20:17;;;;;;;;;;;16.40;94.20;;;;;;6126548;23;19923;-71
2023/11/04 13:22:44;;;;;;;;;;;16.50;94.10;;;;;;6126623;23;19941;-71
2023/11/04 13:25:10;;;;;;;;;;;16.40;94.00;;;;;;6126851;23;19908;-74
2023/11/04 13:27:36;;;;;;;;;;;16.40;94.00;;;;;;6126580;23;19926;-74
2023/11/04 13:30:02;;;;;;;;;;;16.40;94.30;;;;;;6126610;23;20280;-74
2023/11/04 13:32:28;;;;;;;;;;;16.40;93.90;;;;;;6126436;23;19928;-74
2023/11/04 13:34:54;;;;;;;;;;;16.50;94.10;;;;;;6126151;23;20317;-74
2023/11/04 13:37:20;;;;;;;;;;;16.30;94.00;;;;;;6126177;23;19901;-71
2023/11/04 13:39:46;;;;;;;;;;;16.60;94.10;;;;;;6125984;23;19984;-71
2023/11/04 13:42:13;;;;;;;;;;;16.40;94.20;;;;;;6126309;23;19940;-71
2023/11/04 13:44:39;;;;;;;;;;;15.20;93.70;;;;;;6126083;23;19901;-71
2023/11/04 13:47:05;;;;;;;;;;;16.40;93.90;;;;;;6125958;23;19948;-71
2023/11/04 13:49:31;;;;;;;;;;;16.50;94.20;;;;;;6126227;23;19901;-71
2023/11/04 13:51:57;;;;;;;;;;;16.40;94.10;;;;;;6125974;23;19901;-71
2023/11/04 13:54:23;;;;;;;;;;;16.30;94.00;;;;;;6126955;23;20234;-74
2023/11/04 13:56:49;;;;;;;;;;;16.40;94.10;;;;;;6125825;23;19905;-74
2023/11/04 13:59:15;;;;;;;;;;;16.40;94.10;;;;;;6125673;23;19905;-75
2023/11/04 14:01:46;;;;;;;;;;;16.40;94.00;;;;;;6125376;23;19901;-79
2023/11/04 14:04:12;;;;;;;;;;;16.40;92.40;;;;;;6135727;23;19908;-72
2023/11/04 14:06:38;;;;;;;;;;;16.40;93.90;;;;;;6125204;23;20324;-72
2023/11/04 14:09:04;;;;;;;;;;;16.20;94.20;;;;;;6125819;23;19913;-72
2023/11/04 14:11:30;;;;;;;;;;;16.40;94.10;;;;;;6126053;23;19908;-71
2023/11/04 14:13:57;;;;;;;;;;;16.40;94.20;;;;;;6125807;23;20252;-71